This is the latest recevied weather packets stored in our database for station/object WA1OUI. If no packets are shown the sender has not sent any weather packets the latest 10 day(s).
| Time | Temp. | Humidity | Pressure | Rain* | Wind** | Luminosity | Snow |
|---|---|---|---|---|---|---|---|
| 1778241145 | 6.67° C | 75% | 1010.2 hPa | 0 mm | - | 34 W/m² | - |
| 1778240841 | 6.67° C | 76% | 1010.1 hPa | 0 mm | - | 33 W/m² | - |
| 1778240538 | 6.11° C | 77% | 1010.2 hPa | 0 mm | - | 26 W/m² | - |
| 1778240235 | 6.11° C | 78% | 1010 hPa | 0 mm | - | 28 W/m² | - |
| 1778239934 | 5.56° C | 79% | 1010.1 hPa | 0 mm | - | 34 W/m² | - |
| 1778239629 | 5.56° C | 82% | 1010 hPa | 0 mm | - | 34 W/m² | - |
| 1778239326 | 5° C | 89% | 1010.1 hPa | 0 mm | - | 52 W/m² | - |
| 1778239023 | 4.44° C | 89% | 1009.8 hPa | 0 mm | - | 45 W/m² | - |
| 1778238720 | 4.44° C | 89% | 1009.8 hPa | 0 mm | - | 46 W/m² | - |
| 1778238418 | 3.89° C | 89% | 1009.7 hPa | 0 mm | - | 50 W/m² | - |
| 1778238115 | 3.89° C | 89% | 1009.6 hPa | 0 mm | - | 29 W/m² | - |
| 1778237814 | 3.89° C | 89% | 1009.7 hPa | 0 mm | - | 22 W/m² | - |
| 1778237512 | 3.33° C | 88% | 1009.6 hPa | 0 mm | - | 21 W/m² | - |
| 1778237209 | 3.33° C | 89% | 1009.6 hPa | 0 mm | - | 20 W/m² | - |
| 1778236906 | 3.33° C | 87% | 1009.7 hPa | 0 mm | - | 18 W/m² | - |
| 1778236603 | 3.33° C | 87% | 1009.6 hPa | 0 mm | - | 17 W/m² | - |
| 1778236300 | 3.33° C | 87% | 1009.7 hPa | 0 mm | - | 15 W/m² | - |
| 1778235997 | 3.33° C | 86% | 1009.5 hPa | 0 mm | - | 14 W/m² | - |
| 1778235695 | 3.33° C | 85% | 1009.4 hPa | 0 mm | - | 13 W/m² | - |
| 1778235392 | 3.33° C | 85% | 1009.1 hPa | 0 mm | - | 11 W/m² | - |
| 1778235089 | 3.89° C | 85% | 1009.2 hPa | 0 mm | - | 9 W/m² | - |
| 1778234787 | 3.89° C | 84% | 1009.2 hPa | 0 mm | - | 8 W/m² | - |
| 1778234485 | 3.89° C | 83% | 1009 hPa | 0 mm | - | 6 W/m² | - |
| 1778234181 | 3.89° C | 82% | 1009 hPa | 0 mm | - | 5 W/m² | - |
| 1778233878 | 3.89° C | 81% | 1008.9 hPa | 0 mm | - | 4 W/m² | - |
* Rain latest hour (hover to see other rain measurements)
** Current wind speed in m/s (hover to see current wind gust speed)